sensor_id;sensor_type;location;lat;lon;timestamp;pressure;altitude;pressure_sealevel;temperature;humidity
44481;BME280;30184;42.018;23.670;2023-11-18T00:01:36;90596.38;;;6.38;100.00
44481;BME280;30184;42.018;23.670;2023-11-18T00:04:06;90520.72;;;6.45;100.00
44481;BME280;30184;42.018;23.670;2023-11-18T00:06:43;90466.22;;;5.99;100.00
44481;BME280;30184;42.018;23.670;2023-11-18T00:09:12;90529.88;;;6.47;100.00
44481;BME280;30184;42.018;23.670;2023-11-18T00:11:42;90543.75;;;6.33;100.00
44481;BME280;30184;42.018;23.670;2023-11-18T00:14:13;90553.28;;;6.50;100.00
44481;BME280;30184;42.018;23.670;2023-11-18T00:16:42;90554.34;;;6.53;100.00
44481;BME280;30184;42.018;23.670;2023-11-18T00:19:11;90559.75;;;6.53;100.00
44481;BME280;30184;42.018;23.670;2023-11-18T00:21:40;90409.75;;;5.54;100.00
44481;BME280;30184;42.018;23.670;2023-11-18T00:24:10;90548.34;;;6.49;100.00
44481;BME280;30184;42.018;23.670;2023-11-18T00:26:39;90539.78;;;6.50;100.00
44481;BME280;30184;42.018;23.670;2023-11-18T00:29:08;90529.34;;;6.52;100.00
44481;BME280;30184;42.018;23.670;2023-11-18T00:31:38;90536.25;;;6.53;100.00
44481;BME280;30184;42.018;23.670;2023-11-18T00:34:08;90526.66;;;6.52;100.00
44481;BME280;30184;42.018;23.670;2023-11-18T00:36:38;90528.59;;;6.52;100.00
44481;BME280;30184;42.018;23.670;2023-11-18T00:39:07;90505.84;;;6.53;100.00
44481;BME280;30184;42.018;23.670;2023-11-18T00:41:36;90514.78;;;6.50;100.00
44481;BME280;30184;42.018;23.670;2023-11-18T00:44:06;90530.53;;;6.51;100.00
44481;BME280;30184;42.018;23.670;2023-11-18T00:46:36;90532.03;;;6.52;100.00
44481;BME280;30184;42.018;23.670;2023-11-18T00:49:06;90536.25;;;6.53;100.00
44481;BME280;30184;42.018;23.670;2023-11-18T00:51:35;90530.44;;;6.55;100.00
44481;BME280;30184;42.018;23.670;2023-11-18T00:54:05;90521.16;;;6.56;100.00
44481;BME280;30184;42.018;23.670;2023-11-18T00:56:34;90511.56;;;6.55;100.00
44481;BME280;30184;42.018;23.670;2023-11-18T00:59:04;90503.50;;;6.55;100.00
44481;BME280;30184;42.018;23.670;2023-11-18T01:01:34;90520.75;;;6.57;100.00
44481;BME280;30184;42.018;23.670;2023-11-18T01:04:06;90307.16;;;5.10;100.00
44481;BME280;30184;42.018;23.670;2023-11-18T01:06:37;90530.00;;;6.56;100.00
44481;BME280;30184;42.018;23.670;2023-11-18T01:09:06;90538.41;;;6.58;100.00
44481;BME280;30184;42.018;23.670;2023-11-18T01:11:37;90529.34;;;6.52;100.00
44481;BME280;30184;42.018;23.670;2023-11-18T01:14:06;90534.84;;;6.61;100.00
44481;BME280;30184;42.018;23.670;2023-11-18T01:16:35;90539.81;;;6.63;100.00
44481;BME280;30184;42.018;23.670;2023-11-18T01:19:06;90496.56;;;6.28;100.00
44481;BME280;30184;42.018;23.670;2023-11-18T01:21:36;90537.47;;;6.65;100.00
44481;BME280;30184;42.018;23.670;2023-11-18T01:24:06;90536.72;;;6.64;100.00
44481;BME280;30184;42.018;23.670;2023-11-18T01:26:36;90518.81;;;6.58;100.00
44481;BME280;30184;42.018;23.670;2023-11-18T01:29:05;90514.47;;;6.60;100.00
44481;BME280;30184;42.018;23.670;2023-11-18T01:31:34;90484.50;;;6.46;100.00
44481;BME280;30184;42.018;23.670;2023-11-18T01:34:08;90502.19;;;6.59;100.00
44481;BME280;30184;42.018;23.670;2023-11-18T01:36:37;90504.25;;;6.55;100.00
44481;BME280;30184;42.018;23.670;2023-11-18T01:39:06;90520.84;;;6.54;100.00
44481;BME280;30184;42.018;23.670;2023-11-18T01:41:35;90513.09;;;6.56;100.00
44481;BME280;30184;42.018;23.670;2023-11-18T01:44:05;90512.22;;;6.59;100.00
44481;BME280;30184;42.018;23.670;2023-11-18T01:46:36;90506.81;;;6.59;100.00
44481;BME280;30184;42.018;23.670;2023-11-18T01:49:08;90464.53;;;6.30;100.00
44481;BME280;30184;42.018;23.670;2023-11-18T01:51:38;90507.16;;;6.61;100.00
44481;BME280;30184;42.018;23.670;2023-11-18T01:54:08;90468.75;;;6.31;100.00
44481;BME280;30184;42.018;23.670;2023-11-18T01:56:43;90516.00;;;6.61;100.00
44481;BME280;30184;42.018;23.670;2023-11-18T01:59:15;90523.66;;;6.63;100.00
44481;BME280;30184;42.018;23.670;2023-11-18T02:01:47;90500.91;;;6.64;100.00
44481;BME280;30184;42.018;23.670;2023-11-18T02:04:19;90501.66;;;6.64;100.00
44481;BME280;30184;42.018;23.670;2023-11-18T02:06:49;90497.03;;;6.65;100.00
44481;BME280;30184;42.018;23.670;2023-11-18T02:09:20;90472.97;;;6.45;100.00
44481;BME280;30184;42.018;23.670;2023-11-18T02:11:59;90521.72;;;6.63;100.00
44481;BME280;30184;42.018;23.670;2023-11-18T02:14:31;90511.34;;;6.62;100.00
44481;BME280;30184;42.018;23.670;2023-11-18T02:17:05;90509.97;;;6.57;100.00
44481;BME280;30184;42.018;23.670;2023-11-18T02:19:38;90517.72;;;6.55;100.00
44481;BME280;30184;42.018;23.670;2023-11-18T02:22:09;90505.84;;;6.53;100.00
44481;BME280;30184;42.018;23.670;2023-11-18T02:24:40;90490.34;;;6.57;100.00
44481;BME280;30184;42.018;23.670;2023-11-18T02:27:11;90483.78;;;6.58;100.00
44481;BME280;30184;42.018;23.670;2023-11-18T02:29:44;90481.50;;;6.56;100.00
44481;BME280;30184;42.018;23.670;2023-11-18T02:32:20;90486.88;;;6.56;100.00
44481;BME280;30184;42.018;23.670;2023-11-18T02:35:01;90499.50;;;6.59;100.00
44481;BME280;30184;42.018;23.670;2023-11-18T02:37:33;90405.13;;;5.96;100.00
44481;BME280;30184;42.018;23.670;2023-11-18T02:40:04;90497.13;;;6.61;100.00
44481;BME280;30184;42.018;23.670;2023-11-18T02:42:41;90501.66;;;6.64;100.00
44481;BME280;30184;42.018;23.670;2023-11-18T02:45:13;90496.28;;;6.64;100.00
44481;BME280;30184;42.018;23.670;2023-11-18T02:47:44;90520.63;;;6.61;100.00
44481;BME280;30184;42.018;23.670;2023-11-18T02:50:14;90501.97;;;6.54;100.00
44481;BME280;30184;42.018;23.670;2023-11-18T02:52:44;90485.13;;;6.37;100.00
44481;BME280;30184;42.018;23.670;2023-11-18T02:55:13;90274.88;;;4.98;100.00
44481;BME280;30184;42.018;23.670;2023-11-18T02:57:44;90504.13;;;6.59;100.00
44481;BME280;30184;42.018;23.670;2023-11-18T03:00:15;90505.63;;;6.60;100.00
44481;BME280;30184;42.018;23.670;2023-11-18T03:02:50;90471.47;;;6.44;100.00
44481;BME280;30184;42.018;23.670;2023-11-18T03:05:19;90506.72;;;6.62;100.00
44481;BME280;30184;42.018;23.670;2023-11-18T03:07:49;90511.16;;;6.56;100.00
44481;BME280;30184;42.018;23.670;2023-11-18T03:10:20;90501.63;;;6.52;100.00
44481;BME280;30184;42.018;23.670;2023-11-18T03:12:52;90502.94;;;6.47;100.00
44481;BME280;30184;42.018;23.670;2023-11-18T03:15:22;90508.22;;;6.38;100.00
44481;BME280;30184;42.018;23.670;2023-11-18T03:17:51;90510.28;;;6.05;100.00
44481;BME280;30184;42.018;23.670;2023-11-18T03:20:22;90488.97;;;6.23;100.00
44481;BME280;30184;42.018;23.670;2023-11-18T03:22:54;90491.88;;;6.16;100.00
44481;BME280;30184;42.018;23.670;2023-11-18T03:25:23;90481.75;;;6.08;100.00
44481;BME280;30184;42.018;23.670;2023-11-18T03:27:53;90483.63;;;5.94;100.00
44481;BME280;30184;42.018;23.670;2023-11-18T03:30:23;90487.75;;;5.99;100.00
44481;BME280;30184;42.018;23.670;2023-11-18T03:32:52;90481.69;;;5.95;100.00
44481;BME280;30184;42.018;23.670;2023-11-18T03:35:21;90478.34;;;5.91;100.00
44481;BME280;30184;42.018;23.670;2023-11-18T03:37:51;90500.75;;;5.88;100.00
44481;BME280;30184;42.018;23.670;2023-11-18T03:40:23;90484.59;;;5.88;100.00
44481;BME280;30184;42.018;23.670;2023-11-18T03:42:53;90469.97;;;5.73;100.00
44481;BME280;30184;42.018;23.670;2023-11-18T03:45:22;90493.94;;;5.83;100.00
44481;BME280;30184;42.018;23.670;2023-11-18T03:47:51;90497.41;;;5.68;100.00
44481;BME280;30184;42.018;23.670;2023-11-18T03:50:21;90473.75;;;5.75;100.00
44481;BME280;30184;42.018;23.670;2023-11-18T03:52:50;90448.47;;;5.56;100.00
44481;BME280;30184;42.018;23.670;2023-11-18T03:55:19;90486.34;;;5.78;100.00
44481;BME280;30184;42.018;23.670;2023-11-18T03:57:47;90490.34;;;5.74;100.00
44481;BME280;30184;42.018;23.670;2023-11-18T04:00:18;90505.72;;;5.73;100.00
44481;BME280;30184;42.018;23.670;2023-11-18T04:02:47;90511.19;;;5.70;100.00
44481;BME280;30184;42.018;23.670;2023-11-18T04:05:17;90524.50;;;5.60;100.00
44481;BME280;30184;42.018;23.670;2023-11-18T04:07:46;90513.81;;;5.57;100.00
44481;BME280;30184;42.018;23.670;2023-11-18T04:10:15;90404.09;;;4.74;100.00
44481;BME280;30184;42.018;23.670;2023-11-18T04:12:46;90522.03;;;5.37;100.00
44481;BME280;30184;42.018;23.670;2023-11-18T04:15:16;90525.03;;;5.39;100.00
44481;BME280;30184;42.018;23.670;2023-11-18T04:17:46;90525.13;;;5.36;100.00
44481;BME280;30184;42.018;23.670;2023-11-18T04:20:15;90528.72;;;5.29;100.00
44481;BME280;30184;42.018;23.670;2023-11-18T04:22:45;90436.69;;;4.60;100.00
44481;BME280;30184;42.018;23.670;2023-11-18T04:25:14;90500.34;;;4.96;100.00
44481;BME280;30184;42.018;23.670;2023-11-18T04:27:44;90525.06;;;5.07;100.00
44481;BME280;30184;42.018;23.670;2023-11-18T04:30:14;90531.94;;;5.08;100.00
44481;BME280;30184;42.018;23.670;2023-11-18T04:32:43;90533.72;;;4.98;100.00
44481;BME280;30184;42.018;23.670;2023-11-18T04:35:13;90436.31;;;4.26;100.00
44481;BME280;30184;42.018;23.670;2023-11-18T04:37:43;90521.50;;;4.94;100.00
44481;BME280;30184;42.018;23.670;2023-11-18T04:40:13;90525.31;;;4.96;100.00
44481;BME280;30184;42.018;23.670;2023-11-18T04:42:43;90513.28;;;4.84;100.00
44481;BME280;30184;42.018;23.670;2023-11-18T04:45:12;90531.66;;;4.86;100.00
44481;BME280;30184;42.018;23.670;2023-11-18T04:47:42;90524.72;;;4.88;100.00
44481;BME280;30184;42.018;23.670;2023-11-18T04:50:14;90517.81;;;4.87;100.00
44481;BME280;30184;42.018;23.670;2023-11-18T04:52:43;90522.78;;;4.89;100.00
44481;BME280;30184;42.018;23.670;2023-11-18T04:55:12;90509.66;;;4.75;100.00
44481;BME280;30184;42.018;23.670;2023-11-18T04:57:42;90519.41;;;4.85;100.00
44481;BME280;30184;42.018;23.670;2023-11-18T05:00:12;90527.06;;;4.86;100.00
44481;BME280;30184;42.018;23.670;2023-11-18T05:02:46;90540.84;;;4.88;100.00
44481;BME280;30184;42.018;23.670;2023-11-18T05:05:17;90534.28;;;4.90;100.00
44481;BME280;30184;42.018;23.670;2023-11-18T05:07:46;90516.22;;;4.90;100.00
44481;BME280;30184;42.018;23.670;2023-11-18T05:10:15;90526.63;;;4.88;100.00
44481;BME280;30184;42.018;23.670;2023-11-18T05:12:46;90520.41;;;4.75;100.00
44481;BME280;30184;42.018;23.670;2023-11-18T05:15:23;90524.19;;;4.77;100.00
44481;BME280;30184;42.018;23.670;2023-11-18T05:17:53;90533.34;;;4.80;100.00
44481;BME280;30184;42.018;23.670;2023-11-18T05:20:24;90518.41;;;4.79;100.00
44481;BME280;30184;42.018;23.670;2023-11-18T05:22:53;90532.19;;;4.81;100.00
44481;BME280;30184;42.018;23.670;2023-11-18T05:25:23;90417.56;;;4.06;100.00
44481;BME280;30184;42.018;23.670;2023-11-18T05:27:52;90548.03;;;4.75;100.00
44481;BME280;30184;42.018;23.670;2023-11-18T05:30:21;90525.81;;;4.55;100.00
44481;BME280;30184;42.018;23.670;2023-11-18T05:32:51;90529.19;;;4.59;100.00
44481;BME280;30184;42.018;23.670;2023-11-18T05:35:20;90542.06;;;4.68;100.00
44481;BME280;30184;42.018;23.670;2023-11-18T05:37:57;90570.44;;;4.69;100.00
44481;BME280;30184;42.018;23.670;2023-11-18T05:40:26;90540.16;;;4.48;100.00
44481;BME280;30184;42.018;23.670;2023-11-18T05:42:56;90558.19;;;4.68;100.00
44481;BME280;30184;42.018;23.670;2023-11-18T05:45:26;90533.44;;;4.40;100.00
44481;BME280;30184;42.018;23.670;2023-11-18T05:48:12;90556.41;;;4.61;100.00
44481;BME280;30184;42.018;23.670;2023-11-18T05:50:41;90562.19;;;4.60;100.00
44481;BME280;30184;42.018;23.670;2023-11-18T05:53:14;90566.47;;;4.57;100.00
44481;BME280;30184;42.018;23.670;2023-11-18T05:55:43;90553.53;;;4.52;100.00
44481;BME280;30184;42.018;23.670;2023-11-18T05:58:12;90551.53;;;4.36;100.00
44481;BME280;30184;42.018;23.670;2023-11-18T06:00:41;90553.88;;;4.54;100.00
44481;BME280;30184;42.018;23.670;2023-11-18T06:03:10;90569.56;;;4.56;100.00
44481;BME280;30184;42.018;23.670;2023-11-18T06:05:40;90586.44;;;4.56;100.00
44481;BME280;30184;42.018;23.670;2023-11-18T06:08:08;90590.59;;;4.41;100.00
44481;BME280;30184;42.018;23.670;2023-11-18T06:10:40;90215.03;;;1.91;100.00
44481;BME280;30184;42.018;23.670;2023-11-18T06:13:09;90610.50;;;4.43;100.00
44481;BME280;30184;42.018;23.670;2023-11-18T06:15:39;90602.44;;;4.43;100.00
44481;BME280;30184;42.018;23.670;2023-11-18T06:18:08;90601.59;;;4.46;100.00
44481;BME280;30184;42.018;23.670;2023-11-18T06:20:38;90600.59;;;4.40;100.00
44481;BME280;30184;42.018;23.670;2023-11-18T06:23:07;90596.22;;;4.27;100.00
44481;BME280;30184;42.018;23.670;2023-11-18T06:25:36;90597.50;;;4.42;100.00
44481;BME280;30184;42.018;23.670;2023-11-18T06:28:06;90566.16;;;4.16;100.00
44481;BME280;30184;42.018;23.670;2023-11-18T06:30:35;90598.16;;;4.46;100.00
44481;BME280;30184;42.018;23.670;2023-11-18T06:33:06;90586.03;;;4.38;100.00
44481;BME280;30184;42.018;23.670;2023-11-18T06:35:37;90600.84;;;4.46;100.00
44481;BME280;30184;42.018;23.670;2023-11-18T06:38:08;90601.13;;;4.52;100.00
44481;BME280;30184;42.018;23.670;2023-11-18T06:40:41;90582.00;;;4.30;100.00
44481;BME280;30184;42.018;23.670;2023-11-18T06:43:12;90530.38;;;4.02;100.00
44481;BME280;30184;42.018;23.670;2023-11-18T06:45:43;90620.69;;;4.52;100.00
44481;BME280;30184;42.018;23.670;2023-11-18T06:48:12;90437.75;;;3.15;100.00
44481;BME280;30184;42.018;23.670;2023-11-18T06:50:43;90614.75;;;4.61;100.00
44481;BME280;30184;42.018;23.670;2023-11-18T06:53:12;90608.06;;;4.69;99.61
44481;BME280;30184;42.018;23.670;2023-11-18T06:55:42;90626.47;;;4.70;98.41
44481;BME280;30184;42.018;23.670;2023-11-18T06:58:13;90643.41;;;4.67;97.11
44481;BME280;30184;42.018;23.670;2023-11-18T07:00:43;90621.56;;;4.65;98.27
44481;BME280;30184;42.018;23.670;2023-11-18T07:03:13;90607.38;;;4.45;98.58
44481;BME280;30184;42.018;23.670;2023-11-18T07:05:44;90633.56;;;4.61;97.82
44481;BME280;30184;42.018;23.670;2023-11-18T07:08:13;90327.84;;;2.56;97.02
44481;BME280;30184;42.018;23.670;2023-11-18T07:10:42;90630.38;;;4.66;96.71
44481;BME280;30184;42.018;23.670;2023-11-18T07:13:11;90629.16;;;4.50;95.69
44481;BME280;30184;42.018;23.670;2023-11-18T07:15:42;90658.97;;;4.36;95.24
44481;BME280;30184;42.018;23.670;2023-11-18T07:18:11;90627.50;;;4.57;95.21
44481;BME280;30184;42.018;23.670;2023-11-18T07:20:40;90635.50;;;4.60;94.90
44481;BME280;30184;42.018;23.670;2023-11-18T07:23:09;90559.84;;;4.06;94.01
44481;BME280;30184;42.018;23.670;2023-11-18T07:25:39;90606.97;;;4.27;93.71
44481;BME280;30184;42.018;23.670;2023-11-18T07:28:11;90630.72;;;4.68;93.54
44481;BME280;30184;42.018;23.670;2023-11-18T07:30:44;90636.72;;;4.75;93.21
44481;BME280;30184;42.018;23.670;2023-11-18T07:33:15;90597.84;;;4.44;92.19
44481;BME280;30184;42.018;23.670;2023-11-18T07:35:45;90628.66;;;4.75;93.03
44481;BME280;30184;42.018;23.670;2023-11-18T07:38:16;90649.25;;;4.82;92.56
44481;BME280;30184;42.018;23.670;2023-11-18T07:40:47;90636.75;;;4.92;92.12
44481;BME280;30184;42.018;23.670;2023-11-18T07:43:16;90612.00;;;5.00;91.87
44481;BME280;30184;42.018;23.670;2023-11-18T07:45:50;90615.78;;;5.03;90.83
44481;BME280;30184;42.018;23.670;2023-11-18T07:48:21;90598.13;;;5.02;90.75
44481;BME280;30184;42.018;23.670;2023-11-18T07:50:51;90585.63;;;5.11;93.99
44481;BME280;30184;42.018;23.670;2023-11-18T07:53:20;90571.34;;;5.14;94.96
44481;BME280;30184;42.018;23.670;2023-11-18T07:55:49;90539.66;;;5.22;92.87
44481;BME280;30184;42.018;23.670;2023-11-18T07:58:18;90564.28;;;5.53;90.43
44481;BME280;30184;42.018;23.670;2023-11-18T08:00:52;90396.63;;;4.33;87.93
44481;BME280;30184;42.018;23.670;2023-11-18T08:03:22;90583.09;;;5.69;87.97
44481;BME280;30184;42.018;23.670;2023-11-18T08:05:51;90556.25;;;5.82;88.62
44481;BME280;30184;42.018;23.670;2023-11-18T08:08:20;90549.25;;;5.84;88.88
44481;BME280;30184;42.018;23.670;2023-11-18T08:10:50;90572.78;;;6.13;89.16
44481;BME280;30184;42.018;23.670;2023-11-18T08:13:19;90517.75;;;5.69;86.85
44481;BME280;30184;42.018;23.670;2023-11-18T08:15:49;90563.94;;;6.12;88.47
44481;BME280;30184;42.018;23.670;2023-11-18T08:18:21;90565.72;;;6.31;86.95
44481;BME280;30184;42.018;23.670;2023-11-18T08:20:51;90582.63;;;6.19;84.18
44481;BME280;30184;42.018;23.670;2023-11-18T08:23:20;90570.03;;;6.29;83.28
44481;BME280;30184;42.018;23.670;2023-11-18T08:25:50;90566.81;;;6.34;82.87
44481;BME280;30184;42.018;23.670;2023-11-18T08:28:19;90530.53;;;6.39;84.81
44481;BME280;30184;42.018;23.670;2023-11-18T08:30:48;90474.50;;;5.92;79.39
44481;BME280;30184;42.018;23.670;2023-11-18T08:33:20;90573.66;;;5.93;79.14
44481;BME280;30184;42.018;23.670;2023-11-18T08:35:52;90571.66;;;5.81;80.84
44481;BME280;30184;42.018;23.670;2023-11-18T08:38:21;90553.03;;;5.87;81.05
44481;BME280;30184;42.018;23.670;2023-11-18T08:40:50;90529.53;;;6.04;83.29
44481;BME280;30184;42.018;23.670;2023-11-18T08:43:19;90544.31;;;6.12;83.20
44481;BME280;30184;42.018;23.670;2023-11-18T08:45:48;90584.28;;;6.29;81.58
44481;BME280;30184;42.018;23.670;2023-11-18T08:48:18;90594.47;;;6.22;79.64
44481;BME280;30184;42.018;23.670;2023-11-18T08:50:48;90568.53;;;6.41;78.63
44481;BME280;30184;42.018;23.670;2023-11-18T08:53:19;90556.25;;;6.40;77.46
44481;BME280;30184;42.018;23.670;2023-11-18T08:55:53;90593.97;;;6.40;78.56
44481;BME280;30184;42.018;23.670;2023-11-18T08:58:23;90550.66;;;6.34;79.93
44481;BME280;30184;42.018;23.670;2023-11-18T09:00:56;90569.56;;;6.47;74.67
44481;BME280;30184;42.018;23.670;2023-11-18T09:03:33;90530.13;;;6.11;75.29
44481;BME280;30184;42.018;23.670;2023-11-18T09:06:12;90573.44;;;6.46;74.91
44481;BME280;30184;42.018;23.670;2023-11-18T09:08:47;90392.63;;;5.19;73.76
44481;BME280;30184;42.018;23.670;2023-11-18T09:11:21;90602.41;;;6.42;75.47
44481;BME280;30184;42.018;23.670;2023-11-18T09:13:51;90527.94;;;6.48;75.08
44481;BME280;30184;42.018;23.670;2023-11-18T09:16:22;90524.69;;;6.40;74.12
44481;BME280;30184;42.018;23.670;2023-11-18T09:18:53;90546.69;;;6.39;78.26
44481;BME280;30184;42.018;23.670;2023-11-18T09:21:24;90552.56;;;6.21;68.58
44481;BME280;30184;42.018;23.670;2023-11-18T09:23:57;90550.44;;;6.28;63.00
44481;BME280;30184;42.018;23.670;2023-11-18T09:26:26;90556.13;;;6.30;60.52
44481;BME280;30184;42.018;23.670;2023-11-18T09:28:57;90518.75;;;6.32;56.32
44481;BME280;30184;42.018;23.670;2023-11-18T09:31:29;90541.81;;;6.33;55.81
44481;BME280;30184;42.018;23.670;2023-11-18T09:34:01;90541.09;;;6.46;55.95
44481;BME280;30184;42.018;23.670;2023-11-18T09:36:35;90527.31;;;6.56;56.28
44481;BME280;30184;42.018;23.670;2023-11-18T09:39:04;90533.13;;;6.67;55.46
44481;BME280;30184;42.018;23.670;2023-11-18T09:41:35;90534.44;;;6.88;53.18
44481;BME280;30184;42.018;23.670;2023-11-18T09:44:06;90472.34;;;6.66;52.51
44481;BME280;30184;42.018;23.670;2023-11-18T09:46:35;90523.09;;;7.44;51.83
44481;BME280;30184;42.018;23.670;2023-11-18T09:49:14;90566.03;;;7.51;48.00
44481;BME280;30184;42.018;23.670;2023-11-18T09:51:47;90527.03;;;7.65;46.91
44481;BME280;30184;42.018;23.670;2023-11-18T09:54:22;90523.66;;;7.73;48.18
44481;BME280;30184;42.018;23.670;2023-11-18T09:57:04;90523.56;;;7.99;47.53
44481;BME280;30184;42.018;23.670;2023-11-18T09:59:43;90533.09;;;8.25;47.29
44481;BME280;30184;42.018;23.670;2023-11-18T10:02:22;90514.09;;;8.16;45.09
44481;BME280;30184;42.018;23.670;2023-11-18T10:04:54;90549.66;;;8.49;46.19
44481;BME280;30184;42.018;23.670;2023-11-18T10:07:28;90455.75;;;7.97;43.93
44481;BME280;30184;42.018;23.670;2023-11-18T10:10:00;90522.38;;;8.34;45.07
44481;BME280;30184;42.018;23.670;2023-11-18T10:12:30;90536.09;;;8.62;44.20
44481;BME280;30184;42.018;23.670;2023-11-18T10:15:00;90554.00;;;8.68;44.63
44481;BME280;30184;42.018;23.670;2023-11-18T10:17:31;90548.47;;;8.50;45.59
44481;BME280;30184;42.018;23.670;2023-11-18T10:20:00;90576.69;;;8.49;45.25
44481;BME280;30184;42.018;23.670;2023-11-18T10:22:41;90569.03;;;8.47;45.24
44481;BME280;30184;42.018;23.670;2023-11-18T10:25:23;90576.22;;;8.29;43.62
44481;BME280;30184;42.018;23.670;2023-11-18T10:27:53;90561.25;;;8.15;45.90
44481;BME280;30184;42.018;23.670;2023-11-18T10:30:25;90535.03;;;7.68;44.21
44481;BME280;30184;42.018;23.670;2023-11-18T10:32:58;90589.84;;;7.91;43.86
44481;BME280;30184;42.018;23.670;2023-11-18T10:35:34;90574.94;;;7.86;44.56
44481;BME280;30184;42.018;23.670;2023-11-18T10:38:06;90561.00;;;7.40;45.08
44481;BME280;30184;42.018;23.670;2023-11-18T10:40:36;90598.00;;;7.53;44.66
44481;BME280;30184;42.018;23.670;2023-11-18T10:43:05;90594.53;;;7.52;44.62
44481;BME280;30184;42.018;23.670;2023-11-18T10:45:37;90590.78;;;7.49;43.27
44481;BME280;30184;42.018;23.670;2023-11-18T10:48:11;90583.75;;;7.27;43.23
44481;BME280;30184;42.018;23.670;2023-11-18T10:50:46;90584.00;;;7.20;43.42
44481;BME280;30184;42.018;23.670;2023-11-18T10:53:18;90599.28;;;6.97;43.35
44481;BME280;30184;42.018;23.670;2023-11-18T10:55:49;90600.22;;;6.78;43.85
44481;BME280;30184;42.018;23.670;2023-11-18T10:58:19;90599.78;;;6.67;43.30
44481;BME280;30184;42.018;23.670;2023-11-18T11:00:48;90597.41;;;6.69;43.95
44481;BME280;30184;42.018;23.670;2023-11-18T11:03:19;90596.00;;;6.64;44.11
44481;BME280;30184;42.018;23.670;2023-11-18T11:05:52;90611.88;;;6.75;44.63
44481;BME280;30184;42.018;23.670;2023-11-18T11:08:26;90611.69;;;6.82;44.13
44481;BME280;30184;42.018;23.670;2023-11-18T11:11:02;90530.41;;;6.29;45.68
44481;BME280;30184;42.018;23.670;2023-11-18T11:13:35;90588.63;;;6.52;44.40
44481;BME280;30184;42.018;23.670;2023-11-18T11:16:09;90639.69;;;6.72;44.38
44481;BME280;30184;42.018;23.670;2023-11-18T11:18:45;90623.66;;;6.52;43.40
44481;BME280;30184;42.018;23.670;2023-11-18T11:21:25;90612.91;;;6.23;43.82
44481;BME280;30184;42.018;23.670;2023-11-18T11:24:03;90606.84;;;6.48;45.23
44481;BME280;30184;42.018;23.670;2023-11-18T11:26:43;90601.63;;;6.12;44.02
44481;BME280;30184;42.018;23.670;2023-11-18T11:29:26;90585.13;;;6.26;45.48
44481;BME280;30184;42.018;23.670;2023-11-18T11:32:11;90611.28;;;6.26;44.25
44481;BME280;30184;42.018;23.670;2023-11-18T11:34:46;90604.25;;;6.45;45.37
44481;BME280;30184;42.018;23.670;2023-11-18T11:37:24;90600.94;;;6.53;45.57
44481;BME280;30184;42.018;23.670;2023-11-18T11:39:56;90581.03;;;6.34;44.01
44481;BME280;30184;42.018;23.670;2023-11-18T11:42:26;90573.25;;;6.24;44.98
44481;BME280;30184;42.018;23.670;2023-11-18T11:44:56;90581.13;;;6.31;45.03
44481;BME280;30184;42.018;23.670;2023-11-18T11:47:26;90430.88;;;4.45;45.54
44481;BME280;30184;42.018;23.670;2023-11-18T11:50:06;90575.84;;;6.27;46.67
44481;BME280;30184;42.018;23.670;2023-11-18T11:52:45;90584.72;;;6.41;46.18
44481;BME280;30184;42.018;23.670;2023-11-18T11:55:26;90609.16;;;6.33;46.33
44481;BME280;30184;42.018;23.670;2023-11-18T11:58:00;90606.66;;;6.26;45.18
44481;BME280;30184;42.018;23.670;2023-11-18T12:00:30;90403.84;;;4.85;45.69
44481;BME280;30184;42.018;23.670;2023-11-18T12:03:03;90607.41;;;5.98;46.45
44481;BME280;30184;42.018;23.670;2023-11-18T12:05:32;90617.06;;;5.79;45.71
44481;BME280;30184;42.018;23.670;2023-11-18T12:08:03;90584.19;;;5.72;46.73
44481;BME280;30184;42.018;23.670;2023-11-18T12:10:50;90596.56;;;5.69;45.37
44481;BME280;30184;42.018;23.670;2023-11-18T12:13:20;90499.44;;;5.18;46.19
44481;BME280;30184;42.018;23.670;2023-11-18T12:15:50;90564.19;;;5.73;46.10
44481;BME280;30184;42.018;23.670;2023-11-18T12:18:25;90567.50;;;6.09;46.98
44481;BME280;30184;42.018;23.670;2023-11-18T12:20:54;90572.69;;;6.16;46.37
44481;BME280;30184;42.018;23.670;2023-11-18T12:23:25;90553.28;;;6.21;46.45
44481;BME280;30184;42.018;23.670;2023-11-18T12:25:55;90559.63;;;6.44;46.72
44481;BME280;30184;42.018;23.670;2023-11-18T12:28:26;90528.25;;;6.50;45.93
44481;BME280;30184;42.018;23.670;2023-11-18T12:30:56;90494.34;;;6.11;43.57
44481;BME280;30184;42.018;23.670;2023-11-18T12:33:59;90520.16;;;6.50;44.26
44481;BME280;30184;42.018;23.670;2023-11-18T12:37:03;90533.00;;;6.46;45.46
44481;BME280;30184;42.018;23.670;2023-11-18T12:40:04;90436.94;;;5.72;44.78
44481;BME280;30184;42.018;23.670;2023-11-18T12:43:00;90533.53;;;6.41;45.78
44481;BME280;30184;42.018;23.670;2023-11-18T12:48:43;90559.84;;;6.49;44.77
44481;BME280;30184;42.018;23.670;2023-11-18T12:51:15;90572.59;;;6.49;45.30
44481;BME280;30184;42.018;23.670;2023-11-18T12:53:48;90570.41;;;6.44;45.48
44481;BME280;30184;42.018;23.670;2023-11-18T12:56:21;90574.91;;;6.34;44.68
44481;BME280;30184;42.018;23.670;2023-11-18T12:58:53;90578.16;;;6.42;45.92
44481;BME280;30184;42.018;23.670;2023-11-18T13:01:23;90565.72;;;6.31;44.98
44481;BME280;30184;42.018;23.670;2023-11-18T13:03:55;90568.25;;;6.39;44.69
44481;BME280;30184;42.018;23.670;2023-11-18T13:06:24;90467.78;;;5.68;45.63
44481;BME280;30184;42.018;23.670;2023-11-18T13:08:56;90606.59;;;6.43;46.21
44481;BME280;30184;42.018;23.670;2023-11-18T13:11:25;90661.50;;;6.49;45.33
44481;BME280;30184;42.018;23.670;2023-11-18T13:13:56;90577.44;;;6.54;46.20
44481;BME280;30184;42.018;23.670;2023-11-18T13:16:26;90505.63;;;5.93;45.55
44481;BME280;30184;42.018;23.670;2023-11-18T13:18:56;90524.88;;;5.91;45.11
44481;BME280;30184;42.018;23.670;2023-11-18T13:21:25;90612.66;;;6.47;45.77